sensor_id;sensor_type;location;lat;lon;timestamp;P1;durP1;ratioP1;P2;durP2;ratioP2
12088;SDS011;6107;49.078;8.578;2024-01-11T00:00:29;53.13;;;19.65;;
12088;SDS011;6107;49.078;8.578;2024-01-11T00:02:55;50.13;;;18.80;;
12088;SDS011;6107;49.078;8.578;2024-01-11T00:05:21;48.35;;;19.60;;
12088;SDS011;6107;49.078;8.578;2024-01-11T00:07:47;51.35;;;19.45;;
12088;SDS011;6107;49.078;8.578;2024-01-11T00:10:13;51.63;;;19.27;;
12088;SDS011;6107;49.078;8.578;2024-01-11T00:12:39;48.55;;;17.90;;
12088;SDS011;6107;49.078;8.578;2024-01-11T00:15:05;54.35;;;18.80;;
12088;SDS011;6107;49.078;8.578;2024-01-11T00:17:31;47.22;;;17.90;;
12088;SDS011;6107;49.078;8.578;2024-01-11T00:19:56;53.83;;;18.85;;
12088;SDS011;6107;49.078;8.578;2024-01-11T00:22:22;53.28;;;19.17;;
12088;SDS011;6107;49.078;8.578;2024-01-11T00:24:47;47.47;;;17.55;;
12088;SDS011;6107;49.078;8.578;2024-01-11T00:27:13;51.95;;;19.75;;
12088;SDS011;6107;49.078;8.578;2024-01-11T00:29:39;49.75;;;17.90;;
12088;SDS011;6107;49.078;8.578;2024-01-11T00:32:04;47.10;;;18.52;;
12088;SDS011;6107;49.078;8.578;2024-01-11T00:34:30;40.00;;;17.10;;
12088;SDS011;6107;49.078;8.578;2024-01-11T00:36:56;45.22;;;17.33;;
12088;SDS011;6107;49.078;8.578;2024-01-11T00:39:21;44.70;;;16.95;;
12088;SDS011;6107;49.078;8.578;2024-01-11T00:41:47;48.30;;;18.13;;
12088;SDS011;6107;49.078;8.578;2024-01-11T00:44:12;49.95;;;17.25;;
12088;SDS011;6107;49.078;8.578;2024-01-11T00:46:39;49.35;;;19.00;;
12088;SDS011;6107;49.078;8.578;2024-01-11T00:49:04;46.42;;;17.80;;
12088;SDS011;6107;49.078;8.578;2024-01-11T00:51:30;57.47;;;19.92;;
12088;SDS011;6107;49.078;8.578;2024-01-11T00:53:56;57.08;;;19.88;;
12088;SDS011;6107;49.078;8.578;2024-01-11T00:56:21;59.47;;;21.02;;
12088;SDS011;6107;49.078;8.578;2024-01-11T00:58:47;56.42;;;19.52;;
12088;SDS011;6107;49.078;8.578;2024-01-11T01:01:13;47.63;;;17.85;;
12088;SDS011;6107;49.078;8.578;2024-01-11T01:03:38;45.42;;;17.33;;
12088;SDS011;6107;49.078;8.578;2024-01-11T01:06:05;62.55;;;21.15;;
12088;SDS011;6107;49.078;8.578;2024-01-11T01:08:31;60.30;;;21.38;;
12088;SDS011;6107;49.078;8.578;2024-01-11T01:10:57;71.30;;;22.30;;
12088;SDS011;6107;49.078;8.578;2024-01-11T01:13:22;59.03;;;20.75;;
12088;SDS011;6107;49.078;8.578;2024-01-11T01:15:48;58.55;;;20.45;;
12088;SDS011;6107;49.078;8.578;2024-01-11T01:18:13;58.38;;;18.92;;
12088;SDS011;6107;49.078;8.578;2024-01-11T01:20:39;54.05;;;18.50;;
12088;SDS011;6107;49.078;8.578;2024-01-11T01:23:05;60.45;;;19.52;;
12088;SDS011;6107;49.078;8.578;2024-01-11T01:25:30;58.47;;;18.25;;
12088;SDS011;6107;49.078;8.578;2024-01-11T01:27:57;51.55;;;17.10;;
12088;SDS011;6107;49.078;8.578;2024-01-11T01:30:24;55.22;;;16.45;;
12088;SDS011;6107;49.078;8.578;2024-01-11T01:32:50;49.50;;;17.55;;
12088;SDS011;6107;49.078;8.578;2024-01-11T01:35:15;43.20;;;16.85;;
12088;SDS011;6107;49.078;8.578;2024-01-11T01:37:41;41.47;;;16.90;;
12088;SDS011;6107;49.078;8.578;2024-01-11T01:40:07;44.03;;;16.27;;
12088;SDS011;6107;49.078;8.578;2024-01-11T01:42:33;38.63;;;15.43;;
12088;SDS011;6107;49.078;8.578;2024-01-11T01:44:59;49.88;;;17.45;;
12088;SDS011;6107;49.078;8.578;2024-01-11T01:47:25;40.95;;;16.55;;
12088;SDS011;6107;49.078;8.578;2024-01-11T01:49:52;40.15;;;16.15;;
12088;SDS011;6107;49.078;8.578;2024-01-11T01:52:19;43.63;;;16.13;;
12088;SDS011;6107;49.078;8.578;2024-01-11T01:54:46;43.58;;;16.58;;
12088;SDS011;6107;49.078;8.578;2024-01-11T01:57:13;40.80;;;15.77;;
12088;SDS011;6107;49.078;8.578;2024-01-11T01:59:41;42.90;;;16.90;;
12088;SDS011;6107;49.078;8.578;2024-01-11T02:02:08;39.35;;;16.27;;
12088;SDS011;6107;49.078;8.578;2024-01-11T02:04:35;43.05;;;16.63;;
12088;SDS011;6107;49.078;8.578;2024-01-11T02:07:01;46.15;;;16.70;;
12088;SDS011;6107;49.078;8.578;2024-01-11T02:09:27;43.35;;;16.63;;
12088;SDS011;6107;49.078;8.578;2024-01-11T02:11:55;43.20;;;17.02;;
12088;SDS011;6107;49.078;8.578;2024-01-11T02:14:20;41.92;;;14.57;;
12088;SDS011;6107;49.078;8.578;2024-01-11T02:16:46;51.38;;;15.93;;
12088;SDS011;6107;49.078;8.578;2024-01-11T02:19:15;40.65;;;16.38;;
12088;SDS011;6107;49.078;8.578;2024-01-11T02:21:44;41.10;;;16.90;;
12088;SDS011;6107;49.078;8.578;2024-01-11T02:24:13;43.97;;;15.38;;
12088;SDS011;6107;49.078;8.578;2024-01-11T02:26:57;50.50;;;18.00;;
12088;SDS011;6107;49.078;8.578;2024-01-11T02:29:24;42.42;;;15.15;;
12088;SDS011;6107;49.078;8.578;2024-01-11T02:31:50;46.13;;;16.33;;
12088;SDS011;6107;49.078;8.578;2024-01-11T02:34:16;43.03;;;15.80;;
12088;SDS011;6107;49.078;8.578;2024-01-11T02:36:42;36.22;;;15.05;;
12088;SDS011;6107;49.078;8.578;2024-01-11T02:39:08;51.42;;;17.27;;
12088;SDS011;6107;49.078;8.578;2024-01-11T02:41:34;45.90;;;17.10;;
12088;SDS011;6107;49.078;8.578;2024-01-11T02:44:02;46.05;;;15.88;;
12088;SDS011;6107;49.078;8.578;2024-01-11T02:46:27;44.90;;;15.18;;
12088;SDS011;6107;49.078;8.578;2024-01-11T02:48:53;46.80;;;16.35;;
12088;SDS011;6107;49.078;8.578;2024-01-11T02:51:19;40.90;;;16.38;;
12088;SDS011;6107;49.078;8.578;2024-01-11T02:53:44;47.38;;;16.23;;
12088;SDS011;6107;49.078;8.578;2024-01-11T02:56:10;45.45;;;15.68;;
12088;SDS011;6107;49.078;8.578;2024-01-11T02:58:35;38.92;;;16.25;;
12088;SDS011;6107;49.078;8.578;2024-01-11T03:01:01;44.72;;;16.17;;
12088;SDS011;6107;49.078;8.578;2024-01-11T03:03:26;35.03;;;13.52;;
12088;SDS011;6107;49.078;8.578;2024-01-11T03:05:52;41.90;;;16.13;;
12088;SDS011;6107;49.078;8.578;2024-01-11T03:08:18;38.45;;;14.18;;
12088;SDS011;6107;49.078;8.578;2024-01-11T03:10:43;38.80;;;14.57;;
12088;SDS011;6107;49.078;8.578;2024-01-11T03:13:09;46.33;;;15.85;;
12088;SDS011;6107;49.078;8.578;2024-01-11T03:15:34;46.60;;;16.50;;
12088;SDS011;6107;49.078;8.578;2024-01-11T03:18:00;48.70;;;16.65;;
12088;SDS011;6107;49.078;8.578;2024-01-11T03:20:25;52.30;;;18.50;;
12088;SDS011;6107;49.078;8.578;2024-01-11T03:22:51;47.22;;;16.50;;
12088;SDS011;6107;49.078;8.578;2024-01-11T03:25:17;42.88;;;15.75;;
12088;SDS011;6107;49.078;8.578;2024-01-11T03:27:43;50.42;;;17.83;;
12088;SDS011;6107;49.078;8.578;2024-01-11T03:30:09;39.05;;;15.02;;
12088;SDS011;6107;49.078;8.578;2024-01-11T03:32:35;40.28;;;14.60;;
12088;SDS011;6107;49.078;8.578;2024-01-11T03:35:00;47.25;;;16.58;;
12088;SDS011;6107;49.078;8.578;2024-01-11T03:37:26;35.53;;;13.95;;
12088;SDS011;6107;49.078;8.578;2024-01-11T03:39:52;38.55;;;14.48;;
12088;SDS011;6107;49.078;8.578;2024-01-11T03:42:17;41.83;;;16.38;;
12088;SDS011;6107;49.078;8.578;2024-01-11T03:44:46;46.97;;;15.48;;
12088;SDS011;6107;49.078;8.578;2024-01-11T03:47:19;40.50;;;15.35;;
12088;SDS011;6107;49.078;8.578;2024-01-11T03:49:48;44.95;;;16.02;;
12088;SDS011;6107;49.078;8.578;2024-01-11T03:52:15;46.40;;;14.82;;
12088;SDS011;6107;49.078;8.578;2024-01-11T03:54:42;44.35;;;16.00;;
12088;SDS011;6107;49.078;8.578;2024-01-11T03:57:09;52.83;;;17.73;;
12088;SDS011;6107;49.078;8.578;2024-01-11T03:59:36;45.47;;;17.08;;
12088;SDS011;6107;49.078;8.578;2024-01-11T04:02:03;41.42;;;17.05;;
12088;SDS011;6107;49.078;8.578;2024-01-11T04:04:29;47.75;;;17.58;;
12088;SDS011;6107;49.078;8.578;2024-01-11T04:06:56;42.47;;;15.35;;
12088;SDS011;6107;49.078;8.578;2024-01-11T04:09:23;45.53;;;16.33;;
12088;SDS011;6107;49.078;8.578;2024-01-11T04:11:49;48.35;;;16.90;;
12088;SDS011;6107;49.078;8.578;2024-01-11T04:14:15;42.20;;;14.93;;
12088;SDS011;6107;49.078;8.578;2024-01-11T04:16:42;49.47;;;17.40;;
12088;SDS011;6107;49.078;8.578;2024-01-11T04:19:08;40.42;;;15.38;;
12088;SDS011;6107;49.078;8.578;2024-01-11T04:21:34;46.10;;;16.88;;
12088;SDS011;6107;49.078;8.578;2024-01-11T04:24:00;48.58;;;17.02;;
12088;SDS011;6107;49.078;8.578;2024-01-11T04:26:26;45.47;;;17.45;;
12088;SDS011;6107;49.078;8.578;2024-01-11T04:28:52;47.47;;;17.75;;
12088;SDS011;6107;49.078;8.578;2024-01-11T04:31:18;40.55;;;15.60;;
12088;SDS011;6107;49.078;8.578;2024-01-11T04:33:45;45.47;;;16.55;;
12088;SDS011;6107;49.078;8.578;2024-01-11T04:36:11;47.75;;;16.60;;
12088;SDS011;6107;49.078;8.578;2024-01-11T04:38:37;46.70;;;15.82;;
12088;SDS011;6107;49.078;8.578;2024-01-11T04:41:07;48.40;;;15.77;;
12088;SDS011;6107;49.078;8.578;2024-01-11T04:43:35;44.28;;;17.48;;
12088;SDS011;6107;49.078;8.578;2024-01-11T04:46:01;51.03;;;15.73;;
12088;SDS011;6107;49.078;8.578;2024-01-11T04:48:27;42.42;;;15.73;;
12088;SDS011;6107;49.078;8.578;2024-01-11T04:50:53;45.17;;;15.93;;
12088;SDS011;6107;49.078;8.578;2024-01-11T04:53:19;41.40;;;16.45;;
12088;SDS011;6107;49.078;8.578;2024-01-11T04:55:45;40.67;;;16.50;;
12088;SDS011;6107;49.078;8.578;2024-01-11T04:58:11;49.80;;;16.38;;
12088;SDS011;6107;49.078;8.578;2024-01-11T05:00:37;53.20;;;18.67;;
12088;SDS011;6107;49.078;8.578;2024-01-11T05:03:03;40.40;;;15.40;;
12088;SDS011;6107;49.078;8.578;2024-01-11T05:05:29;44.25;;;17.05;;
12088;SDS011;6107;49.078;8.578;2024-01-11T05:07:55;46.65;;;16.15;;
12088;SDS011;6107;49.078;8.578;2024-01-11T05:10:21;48.22;;;17.48;;
12088;SDS011;6107;49.078;8.578;2024-01-11T05:12:47;51.28;;;17.45;;
12088;SDS011;6107;49.078;8.578;2024-01-11T05:15:13;39.78;;;16.13;;
12088;SDS011;6107;49.078;8.578;2024-01-11T05:17:39;41.63;;;16.45;;
12088;SDS011;6107;49.078;8.578;2024-01-11T05:20:07;46.40;;;15.95;;
12088;SDS011;6107;49.078;8.578;2024-01-11T05:22:33;40.50;;;15.95;;
12088;SDS011;6107;49.078;8.578;2024-01-11T05:24:59;46.65;;;16.08;;
12088;SDS011;6107;49.078;8.578;2024-01-11T05:27:25;53.97;;;18.40;;
12088;SDS011;6107;49.078;8.578;2024-01-11T05:29:51;44.88;;;17.27;;
12088;SDS011;6107;49.078;8.578;2024-01-11T05:32:17;45.45;;;17.23;;
12088;SDS011;6107;49.078;8.578;2024-01-11T05:34:43;48.92;;;16.30;;
12088;SDS011;6107;49.078;8.578;2024-01-11T05:37:09;48.40;;;16.70;;
12088;SDS011;6107;49.078;8.578;2024-01-11T05:39:35;46.53;;;17.08;;
12088;SDS011;6107;49.078;8.578;2024-01-11T05:42:01;47.63;;;17.10;;
12088;SDS011;6107;49.078;8.578;2024-01-11T05:44:27;44.08;;;17.15;;
12088;SDS011;6107;49.078;8.578;2024-01-11T05:46:53;40.92;;;15.57;;
12088;SDS011;6107;49.078;8.578;2024-01-11T05:49:19;42.33;;;15.90;;
12088;SDS011;6107;49.078;8.578;2024-01-11T05:51:46;43.15;;;15.88;;
12088;SDS011;6107;49.078;8.578;2024-01-11T05:54:12;50.00;;;16.38;;
12088;SDS011;6107;49.078;8.578;2024-01-11T05:56:38;53.30;;;16.50;;
12088;SDS011;6107;49.078;8.578;2024-01-11T05:59:04;58.65;;;15.93;;
12088;SDS011;6107;49.078;8.578;2024-01-11T06:01:30;39.40;;;15.20;;
12088;SDS011;6107;49.078;8.578;2024-01-11T06:03:57;44.85;;;15.95;;
12088;SDS011;6107;49.078;8.578;2024-01-11T06:06:23;46.67;;;17.25;;
12088;SDS011;6107;49.078;8.578;2024-01-11T06:08:48;47.40;;;17.83;;
12088;SDS011;6107;49.078;8.578;2024-01-11T06:11:15;46.92;;;16.67;;
12088;SDS011;6107;49.078;8.578;2024-01-11T06:13:43;49.42;;;16.92;;
12088;SDS011;6107;49.078;8.578;2024-01-11T06:16:08;47.65;;;16.83;;
12088;SDS011;6107;49.078;8.578;2024-01-11T06:18:34;60.15;;;17.15;;
12088;SDS011;6107;49.078;8.578;2024-01-11T06:21:00;43.17;;;14.43;;
12088;SDS011;6107;49.078;8.578;2024-01-11T06:23:25;43.25;;;16.60;;
12088;SDS011;6107;49.078;8.578;2024-01-11T06:25:51;42.60;;;16.30;;
12088;SDS011;6107;49.078;8.578;2024-01-11T06:28:17;42.17;;;14.93;;
12088;SDS011;6107;49.078;8.578;2024-01-11T06:30:42;44.08;;;15.75;;
12088;SDS011;6107;49.078;8.578;2024-01-11T06:33:08;48.72;;;16.70;;
12088;SDS011;6107;49.078;8.578;2024-01-11T06:35:34;42.22;;;16.88;;
12088;SDS011;6107;49.078;8.578;2024-01-11T06:38:00;48.55;;;17.02;;
12088;SDS011;6107;49.078;8.578;2024-01-11T06:40:26;51.50;;;18.83;;
12088;SDS011;6107;49.078;8.578;2024-01-11T06:42:51;52.05;;;18.63;;
12088;SDS011;6107;49.078;8.578;2024-01-11T06:45:17;47.80;;;15.55;;
12088;SDS011;6107;49.078;8.578;2024-01-11T06:47:43;51.30;;;17.23;;
12088;SDS011;6107;49.078;8.578;2024-01-11T06:50:11;44.92;;;16.17;;
12088;SDS011;6107;49.078;8.578;2024-01-11T06:52:38;48.30;;;16.13;;
12088;SDS011;6107;49.078;8.578;2024-01-11T06:55:03;43.28;;;16.35;;
12088;SDS011;6107;49.078;8.578;2024-01-11T06:57:29;43.33;;;15.13;;
12088;SDS011;6107;49.078;8.578;2024-01-11T06:59:55;47.30;;;15.95;;
12088;SDS011;6107;49.078;8.578;2024-01-11T07:02:21;43.90;;;17.15;;
12088;SDS011;6107;49.078;8.578;2024-01-11T07:04:47;43.53;;;16.73;;
12088;SDS011;6107;49.078;8.578;2024-01-11T07:07:12;44.53;;;15.55;;
12088;SDS011;6107;49.078;8.578;2024-01-11T07:09:38;45.92;;;18.60;;
12088;SDS011;6107;49.078;8.578;2024-01-11T07:12:04;44.90;;;17.40;;
12088;SDS011;6107;49.078;8.578;2024-01-11T07:14:31;49.25;;;17.33;;
12088;SDS011;6107;49.078;8.578;2024-01-11T07:16:57;44.03;;;15.80;;
12088;SDS011;6107;49.078;8.578;2024-01-11T07:19:22;46.50;;;15.90;;
12088;SDS011;6107;49.078;8.578;2024-01-11T07:21:48;39.28;;;16.15;;
12088;SDS011;6107;49.078;8.578;2024-01-11T07:24:14;43.63;;;15.85;;
12088;SDS011;6107;49.078;8.578;2024-01-11T07:26:40;47.10;;;16.90;;
12088;SDS011;6107;49.078;8.578;2024-01-11T07:29:06;44.55;;;17.35;;
12088;SDS011;6107;49.078;8.578;2024-01-11T07:31:32;49.25;;;16.40;;
12088;SDS011;6107;49.078;8.578;2024-01-11T07:33:57;46.38;;;16.27;;
12088;SDS011;6107;49.078;8.578;2024-01-11T07:36:23;45.05;;;16.52;;
12088;SDS011;6107;49.078;8.578;2024-01-11T07:38:48;43.15;;;16.27;;
12088;SDS011;6107;49.078;8.578;2024-01-11T07:41:14;45.53;;;16.73;;
12088;SDS011;6107;49.078;8.578;2024-01-11T07:43:40;48.58;;;17.77;;
12088;SDS011;6107;49.078;8.578;2024-01-11T07:46:05;45.42;;;17.25;;
12088;SDS011;6107;49.078;8.578;2024-01-11T07:48:32;43.65;;;17.70;;
12088;SDS011;6107;49.078;8.578;2024-01-11T07:50:58;36.90;;;15.32;;
12088;SDS011;6107;49.078;8.578;2024-01-11T07:53:24;48.50;;;17.98;;
12088;SDS011;6107;49.078;8.578;2024-01-11T07:55:51;53.10;;;18.77;;
12088;SDS011;6107;49.078;8.578;2024-01-11T07:58:16;48.80;;;16.92;;
12088;SDS011;6107;49.078;8.578;2024-01-11T08:00:42;55.45;;;18.25;;
12088;SDS011;6107;49.078;8.578;2024-01-11T08:03:08;55.70;;;18.73;;
12088;SDS011;6107;49.078;8.578;2024-01-11T08:05:34;54.20;;;18.33;;
12088;SDS011;6107;49.078;8.578;2024-01-11T08:08:00;48.53;;;18.58;;
12088;SDS011;6107;49.078;8.578;2024-01-11T08:10:28;53.20;;;17.67;;
12088;SDS011;6107;49.078;8.578;2024-01-11T08:12:55;50.97;;;17.52;;
12088;SDS011;6107;49.078;8.578;2024-01-11T08:15:21;48.45;;;18.98;;
12088;SDS011;6107;49.078;8.578;2024-01-11T08:17:47;51.53;;;19.48;;
12088;SDS011;6107;49.078;8.578;2024-01-11T08:20:13;49.00;;;18.25;;
12088;SDS011;6107;49.078;8.578;2024-01-11T08:22:39;53.22;;;19.30;;
12088;SDS011;6107;49.078;8.578;2024-01-11T08:25:09;56.25;;;20.58;;
12088;SDS011;6107;49.078;8.578;2024-01-11T08:27:34;51.10;;;19.60;;
12088;SDS011;6107;49.078;8.578;2024-01-11T08:30:00;52.67;;;19.65;;
12088;SDS011;6107;49.078;8.578;2024-01-11T08:32:27;60.70;;;20.75;;
12088;SDS011;6107;49.078;8.578;2024-01-11T08:34:53;65.10;;;20.25;;
12088;SDS011;6107;49.078;8.578;2024-01-11T08:37:19;54.38;;;18.88;;
12088;SDS011;6107;49.078;8.578;2024-01-11T08:39:45;55.53;;;21.95;;
12088;SDS011;6107;49.078;8.578;2024-01-11T08:42:11;58.90;;;20.70;;
12088;SDS011;6107;49.078;8.578;2024-01-11T08:44:40;53.08;;;21.27;;
12088;SDS011;6107;49.078;8.578;2024-01-11T08:47:07;54.03;;;21.98;;
12088;SDS011;6107;49.078;8.578;2024-01-11T08:49:35;55.97;;;20.42;;
12088;SDS011;6107;49.078;8.578;2024-01-11T08:52:04;68.28;;;26.45;;
12088;SDS011;6107;49.078;8.578;2024-01-11T08:54:30;68.20;;;26.10;;
12088;SDS011;6107;49.078;8.578;2024-01-11T08:56:58;65.43;;;23.13;;
12088;SDS011;6107;49.078;8.578;2024-01-11T08:59:23;65.05;;;23.25;;
12088;SDS011;6107;49.078;8.578;2024-01-11T09:01:50;57.63;;;21.85;;
12088;SDS011;6107;49.078;8.578;2024-01-11T09:04:16;62.53;;;23.10;;
12088;SDS011;6107;49.078;8.578;2024-01-11T09:06:43;66.13;;;23.70;;
12088;SDS011;6107;49.078;8.578;2024-01-11T09:09:09;70.93;;;22.52;;
12088;SDS011;6107;49.078;8.578;2024-01-11T09:11:35;57.03;;;21.23;;
12088;SDS011;6107;49.078;8.578;2024-01-11T09:14:01;59.08;;;23.70;;
12088;SDS011;6107;49.078;8.578;2024-01-11T09:16:30;58.38;;;22.38;;
12088;SDS011;6107;49.078;8.578;2024-01-11T09:18:55;73.30;;;24.17;;
12088;SDS011;6107;49.078;8.578;2024-01-11T09:21:21;62.72;;;21.80;;
12088;SDS011;6107;49.078;8.578;2024-01-11T09:23:47;62.15;;;24.35;;
12088;SDS011;6107;49.078;8.578;2024-01-11T09:26:13;68.13;;;25.92;;
12088;SDS011;6107;49.078;8.578;2024-01-11T09:28:38;65.20;;;22.88;;
12088;SDS011;6107;49.078;8.578;2024-01-11T09:31:04;54.38;;;21.20;;
12088;SDS011;6107;49.078;8.578;2024-01-11T09:33:30;62.15;;;24.27;;
12088;SDS011;6107;49.078;8.578;2024-01-11T09:35:55;69.13;;;23.00;;
12088;SDS011;6107;49.078;8.578;2024-01-11T09:38:21;58.60;;;22.20;;
12088;SDS011;6107;49.078;8.578;2024-01-11T09:40:48;66.35;;;22.95;;
12088;SDS011;6107;49.078;8.578;2024-01-11T09:43:21;62.30;;;22.95;;
12088;SDS011;6107;49.078;8.578;2024-01-11T09:45:48;57.40;;;23.48;;
12088;SDS011;6107;49.078;8.578;2024-01-11T09:48:14;64.97;;;24.15;;
12088;SDS011;6107;49.078;8.578;2024-01-11T09:50:42;74.30;;;24.67;;
12088;SDS011;6107;49.078;8.578;2024-01-11T09:53:07;64.07;;;23.08;;
12088;SDS011;6107;49.078;8.578;2024-01-11T09:55:34;64.00;;;22.95;;
12088;SDS011;6107;49.078;8.578;2024-01-11T09:58:01;64.20;;;24.70;;
12088;SDS011;6107;49.078;8.578;2024-01-11T10:00:28;65.82;;;23.98;;
12088;SDS011;6107;49.078;8.578;2024-01-11T10:02:53;66.15;;;24.10;;
12088;SDS011;6107;49.078;8.578;2024-01-11T10:05:19;63.40;;;24.25;;
12088;SDS011;6107;49.078;8.578;2024-01-11T10:07:44;63.50;;;23.77;;
12088;SDS011;6107;49.078;8.578;2024-01-11T10:10:13;63.42;;;25.05;;
12088;SDS011;6107;49.078;8.578;2024-01-11T10:12:41;56.88;;;23.50;;
12088;SDS011;6107;49.078;8.578;2024-01-11T10:15:07;69.25;;;25.30;;
12088;SDS011;6107;49.078;8.578;2024-01-11T10:17:41;60.97;;;23.88;;
12088;SDS011;6107;49.078;8.578;2024-01-11T10:20:09;58.70;;;24.63;;
12088;SDS011;6107;49.078;8.578;2024-01-11T10:22:36;59.65;;;24.02;;
12088;SDS011;6107;49.078;8.578;2024-01-11T10:25:20;64.53;;;25.10;;
12088;SDS011;6107;49.078;8.578;2024-01-11T10:27:46;62.70;;;24.83;;
12088;SDS011;6107;49.078;8.578;2024-01-11T10:30:12;61.60;;;24.48;;
12088;SDS011;6107;49.078;8.578;2024-01-11T10:32:40;55.17;;;23.13;;
12088;SDS011;6107;49.078;8.578;2024-01-11T10:35:06;58.10;;;24.88;;
12088;SDS011;6107;49.078;8.578;2024-01-11T10:37:32;66.97;;;25.30;;
12088;SDS011;6107;49.078;8.578;2024-01-11T10:39:58;54.63;;;24.52;;
12088;SDS011;6107;49.078;8.578;2024-01-11T10:42:35;66.50;;;25.67;;
12088;SDS011;6107;49.078;8.578;2024-01-11T10:45:04;71.40;;;27.13;;
12088;SDS011;6107;49.078;8.578;2024-01-11T10:48:02;70.30;;;26.88;;
12088;SDS011;6107;49.078;8.578;2024-01-11T10:50:30;66.30;;;26.35;;
12088;SDS011;6107;49.078;8.578;2024-01-11T10:55:33;68.25;;;26.05;;
12088;SDS011;6107;49.078;8.578;2024-01-11T10:57:59;64.28;;;26.55;;
12088;SDS011;6107;49.078;8.578;2024-01-11T11:00:29;71.63;;;26.45;;
12088;SDS011;6107;49.078;8.578;2024-01-11T11:02:56;65.03;;;26.52;;
12088;SDS011;6107;49.078;8.578;2024-01-11T11:05:25;58.45;;;24.40;;
12088;SDS011;6107;49.078;8.578;2024-01-11T11:07:51;75.82;;;33.03;;
12088;SDS011;6107;49.078;8.578;2024-01-11T11:10:19;67.63;;;25.08;;
12088;SDS011;6107;49.078;8.578;2024-01-11T11:12:45;55.28;;;23.45;;
12088;SDS011;6107;49.078;8.578;2024-01-11T11:15:12;61.90;;;24.23;;
12088;SDS011;6107;49.078;8.578;2024-01-11T11:17:39;74.30;;;30.02;;
12088;SDS011;6107;49.078;8.578;2024-01-11T11:20:09;73.32;;;26.10;;
12088;SDS011;6107;49.078;8.578;2024-01-11T11:22:41;72.25;;;27.05;;
12088;SDS011;6107;49.078;8.578;2024-01-11T11:25:11;72.65;;;28.15;;
12088;SDS011;6107;49.078;8.578;2024-01-11T11:27:49;72.43;;;29.80;;
12088;SDS011;6107;49.078;8.578;2024-01-11T11:30:18;58.80;;;24.23;;
12088;SDS011;6107;49.078;8.578;2024-01-11T11:32:45;56.92;;;24.63;;
12088;SDS011;6107;49.078;8.578;2024-01-11T11:35:11;68.10;;;25.02;;
12088;SDS011;6107;49.078;8.578;2024-01-11T11:37:37;56.35;;;23.17;;
12088;SDS011;6107;49.078;8.578;2024-01-11T11:40:04;59.55;;;25.35;;
12088;SDS011;6107;49.078;8.578;2024-01-11T11:42:34;61.33;;;24.52;;
12088;SDS011;6107;49.078;8.578;2024-01-11T11:45:00;60.45;;;26.92;;
12088;SDS011;6107;49.078;8.578;2024-01-11T11:47:32;59.45;;;24.92;;
12088;SDS011;6107;49.078;8.578;2024-01-11T11:50:10;77.50;;;32.75;;
12088;SDS011;6107;49.078;8.578;2024-01-11T11:52:37;60.03;;;26.63;;
12088;SDS011;6107;49.078;8.578;2024-01-11T11:55:04;56.67;;;24.63;;
12088;SDS011;6107;49.078;8.578;2024-01-11T11:57:32;59.92;;;25.58;;
12088;SDS011;6107;49.078;8.578;2024-01-11T11:59:58;58.67;;;24.90;;
12088;SDS011;6107;49.078;8.578;2024-01-11T12:02:25;57.35;;;24.63;;
12088;SDS011;6107;49.078;8.578;2024-01-11T12:04:51;59.63;;;24.90;;
12088;SDS011;6107;49.078;8.578;2024-01-11T12:07:19;55.00;;;24.00;;
12088;SDS011;6107;49.078;8.578;2024-01-11T12:09:45;54.28;;;25.02;;
12088;SDS011;6107;49.078;8.578;2024-01-11T12:12:11;51.13;;;24.13;;
12088;SDS011;6107;49.078;8.578;2024-01-11T12:14:38;58.17;;;25.77;;
12088;SDS011;6107;49.078;8.578;2024-01-11T12:17:05;61.05;;;25.85;;
12088;SDS011;6107;49.078;8.578;2024-01-11T12:19:31;53.90;;;24.25;;
12088;SDS011;6107;49.078;8.578;2024-01-11T12:21:57;59.17;;;24.90;;
12088;SDS011;6107;49.078;8.578;2024-01-11T12:24:23;53.17;;;22.95;;
12088;SDS011;6107;49.078;8.578;2024-01-11T12:26:49;53.13;;;23.80;;
12088;SDS011;6107;49.078;8.578;2024-01-11T12:29:19;57.72;;;25.00;;
12088;SDS011;6107;49.078;8.578;2024-01-11T12:31:46;50.75;;;22.92;;
12088;SDS011;6107;49.078;8.578;2024-01-11T12:34:12;66.43;;;24.67;;
12088;SDS011;6107;49.078;8.578;2024-01-11T12:36:39;51.60;;;23.50;;
12088;SDS011;6107;49.078;8.578;2024-01-11T12:39:05;56.25;;;24.80;;
12088;SDS011;6107;49.078;8.578;2024-01-11T12:41:31;47.83;;;19.30;;
12088;SDS011;6107;49.078;8.578;2024-01-11T12:43:58;54.53;;;22.50;;
12088;SDS011;6107;49.078;8.578;2024-01-11T12:46:24;55.30;;;25.02;;
12088;SDS011;6107;49.078;8.578;2024-01-11T12:48:50;55.45;;;24.08;;
12088;SDS011;6107;49.078;8.578;2024-01-11T12:51:16;54.00;;;25.60;;
12088;SDS011;6107;49.078;8.578;2024-01-11T12:53:50;48.63;;;24.05;;
12088;SDS011;6107;49.078;8.578;2024-01-11T12:56:18;50.17;;;22.98;;
12088;SDS011;6107;49.078;8.578;2024-01-11T12:58:46;47.70;;;22.65;;
12088;SDS011;6107;49.078;8.578;2024-01-11T13:01:12;54.08;;;23.58;;
12088;SDS011;6107;49.078;8.578;2024-01-11T13:03:40;45.63;;;21.98;;
12088;SDS011;6107;49.078;8.578;2024-01-11T13:06:10;49.05;;;21.35;;
12088;SDS011;6107;49.078;8.578;2024-01-11T13:08:37;53.10;;;23.05;;
12088;SDS011;6107;49.078;8.578;2024-01-11T13:11:06;54.60;;;22.50;;
12088;SDS011;6107;49.078;8.578;2024-01-11T13:13:33;52.22;;;21.58;;
12088;SDS011;6107;49.078;8.578;2024-01-11T13:15:59;49.58;;;21.98;;
12088;SDS011;6107;49.078;8.578;2024-01-11T13:18:25;51.85;;;23.15;;
12088;SDS011;6107;49.078;8.578;2024-01-11T13:20:50;46.75;;;22.23;;
12088;SDS011;6107;49.078;8.578;2024-01-11T13:23:19;47.17;;;23.35;;
12088;SDS011;6107;49.078;8.578;2024-01-11T13:25:46;51.92;;;23.05;;
12088;SDS011;6107;49.078;8.578;2024-01-11T13:28:13;46.83;;;22.92;;
12088;SDS011;6107;49.078;8.578;2024-01-11T13:30:39;51.45;;;23.20;;
12088;SDS011;6107;49.078;8.578;2024-01-11T13:33:06;59.38;;;23.27;;
12088;SDS011;6107;49.078;8.578;2024-01-11T13:35:35;52.85;;;21.70;;
12088;SDS011;6107;49.078;8.578;2024-01-11T13:38:02;54.83;;;22.10;;
12088;SDS011;6107;49.078;8.578;2024-01-11T13:40:29;51.05;;;22.77;;
12088;SDS011;6107;49.078;8.578;2024-01-11T13:42:55;51.00;;;23.42;;
12088;SDS011;6107;49.078;8.578;2024-01-11T13:45:21;46.35;;;20.45;;
12088;SDS011;6107;49.078;8.578;2024-01-11T13:47:48;40.33;;;19.90;;
12088;SDS011;6107;49.078;8.578;2024-01-11T13:50:13;60.17;;;22.85;;
12088;SDS011;6107;49.078;8.578;2024-01-11T13:52:39;49.75;;;21.63;;
12088;SDS011;6107;49.078;8.578;2024-01-11T13:55:06;51.70;;;22.50;;
12088;SDS011;6107;49.078;8.578;2024-01-11T13:57:34;47.15;;;21.05;;
12088;SDS011;6107;49.078;8.578;2024-01-11T14:00:02;51.42;;;22.75;;
12088;SDS011;6107;49.078;8.578;2024-01-11T14:02:28;51.65;;;22.35;;
12088;SDS011;6107;49.078;8.578;2024-01-11T14:04:53;55.30;;;24.15;;
12088;SDS011;6107;49.078;8.578;2024-01-11T14:07:19;60.45;;;24.27;;
12088;SDS011;6107;49.078;8.578;2024-01-11T14:09:45;54.65;;;23.70;;
12088;SDS011;6107;49.078;8.578;2024-01-11T14:12:11;57.78;;;24.52;;
12088;SDS011;6107;49.078;8.578;2024-01-11T14:14:37;57.60;;;23.83;;
12088;SDS011;6107;49.078;8.578;2024-01-11T14:17:02;52.25;;;22.95;;
12088;SDS011;6107;49.078;8.578;2024-01-11T14:19:28;51.33;;;23.55;;
12088;SDS011;6107;49.078;8.578;2024-01-11T14:21:53;58.50;;;24.15;;
12088;SDS011;6107;49.078;8.578;2024-01-11T14:24:19;60.47;;;24.48;;
12088;SDS011;6107;49.078;8.578;2024-01-11T14:26:44;55.10;;;21.95;;
12088;SDS011;6107;49.078;8.578;2024-01-11T14:29:10;46.97;;;20.77;;
12088;SDS011;6107;49.078;8.578;2024-01-11T14:31:36;53.83;;;23.15;;